createdAt,value
2018-08-11T00:02:07.057Z,72.11
2018-08-11T00:04:45.593Z,71.62
2018-08-11T00:07:20.494Z,72.70
2018-08-11T00:09:53.180Z,71.62
2018-08-11T00:12:25.457Z,72.59
2018-08-11T00:14:58.965Z,73.09
2018-08-11T00:17:32.688Z,72.24
2018-08-11T00:20:13.688Z,72.88
2018-08-11T00:22:49.760Z,72.23
2018-08-11T00:25:20.317Z,72.92
2018-08-11T00:27:52.153Z,73.11
2018-08-11T00:30:31.401Z,72.85
2018-08-11T00:33:07.985Z,72.83
2018-08-11T00:35:43.713Z,71.86
2018-08-11T00:38:21.042Z,72.34
2018-08-11T00:41:20.383Z,72.22
2018-08-11T00:44:01.893Z,72.20
2018-08-11T00:46:38.571Z,72.43
2018-08-11T00:49:17.367Z,73.15
2018-08-11T00:55:09.532Z,72.87
2018-08-11T00:57:49.812Z,72.11
2018-08-11T01:00:23.334Z,71.52
2018-08-11T01:02:56.765Z,70.69
2018-08-11T01:05:27.525Z,72.57
2018-08-11T01:07:59.038Z,70.78
2018-08-11T01:10:31.498Z,70.11
2018-08-11T01:13:03.616Z,69.75
2018-08-11T01:15:35.830Z,70.37
2018-08-11T01:18:09.718Z,68.97
2018-08-11T01:20:41.647Z,69.28
2018-08-11T01:23:17.897Z,69.36
2018-08-11T01:25:54.450Z,67.48
2018-08-11T01:28:27.230Z,68.13
2018-08-11T01:30:59.639Z,67.72
2018-08-11T01:33:33.580Z,66.22
2018-08-11T01:36:04.779Z,68.08
2018-08-11T01:38:39.165Z,68.99
2018-08-11T01:41:11.730Z,67.59
2018-08-11T01:43:45.724Z,68.33
2018-08-11T01:46:21.366Z,64.84
2018-08-11T01:48:56.918Z,66.59
2018-08-11T01:51:33.692Z,65.33
2018-08-11T01:54:10.635Z,67.49
2018-08-11T01:56:45.517Z,67.56
2018-08-11T01:59:16.978Z,67.95
2018-08-11T02:01:50.053Z,68.10
2018-08-11T02:04:22.206Z,66.33
2018-08-11T02:06:58.508Z,67.46
2018-08-11T02:09:33.397Z,67.09
2018-08-11T02:12:05.862Z,67.35
2018-08-11T02:14:38.290Z,67.27
2018-08-11T02:17:10.645Z,67.02
2018-08-11T02:19:43.169Z,66.17
2018-08-11T02:22:16.347Z,66.57
2018-08-11T02:24:50.672Z,64.16
2018-08-11T02:27:22.269Z,63.16
2018-08-11T02:29:54.761Z,62.66
2018-08-11T02:35:30.680Z,62.38
2018-08-11T02:38:06.405Z,61.78
2018-08-11T02:40:46.073Z,61.43
2018-08-11T02:43:19.045Z,60.84
2018-08-11T02:45:52.676Z,62.09
2018-08-11T02:48:29.646Z,61.75
2018-08-11T02:50:59.410Z,60.89
2018-08-11T02:53:31.633Z,61.13
2018-08-11T02:56:01.359Z,61.14
2018-08-11T02:58:36.610Z,61.41
2018-08-11T03:01:10.426Z,61.16
2018-08-11T03:03:45.805Z,61.48
2018-08-11T03:06:20.345Z,60.99
2018-08-11T03:08:53.926Z,62.05
2018-08-11T03:11:25.516Z,61.71
2018-08-11T03:14:05.542Z,62.94
2018-08-11T03:16:41.929Z,63.21
2018-08-11T03:19:14.131Z,62.99
2018-08-11T03:21:47.900Z,63.96
2018-08-11T03:24:20.409Z,64.22
2018-08-11T03:26:56.421Z,63.58
2018-08-11T03:29:34.708Z,64.11
2018-08-11T03:32:08.507Z,64.65
2018-08-11T03:34:42.921Z,64.48
2018-08-11T03:37:15.284Z,63.83
2018-08-11T03:39:48.771Z,65.25
2018-08-11T03:42:26.109Z,64.83
2018-08-11T03:47:36.359Z,65.08
2018-08-11T03:50:10.891Z,65.82
2018-08-11T03:52:45.446Z,64.61
2018-08-11T03:55:22.762Z,66.17
2018-08-11T03:57:55.413Z,65.08
2018-08-11T04:03:08.074Z,64.61
2018-08-11T04:05:41.112Z,65.89
2018-08-11T04:08:15.488Z,65.78
2018-08-11T04:10:47.121Z,66.14
2018-08-11T04:13:19.247Z,66.00
2018-08-11T04:15:51.457Z,66.10
2018-08-11T04:18:23.573Z,66.70
2018-08-11T04:20:55.019Z,67.26
2018-08-11T04:23:25.949Z,66.86
2018-08-11T04:25:58.385Z,67.37
2018-08-11T04:28:37.953Z,67.18
2018-08-11T04:31:09.857Z,67.87
2018-08-11T04:33:43.511Z,68.48
2018-08-11T04:36:16.844Z,70.49
2018-08-11T04:41:31.924Z,72.00
2018-08-11T04:44:09.399Z,70.76
2018-08-11T04:46:41.339Z,72.47
2018-08-11T04:49:13.130Z,71.65
2018-08-11T04:51:44.286Z,73.42
2018-08-11T04:54:15.409Z,74.10
2018-08-11T04:56:45.967Z,76.36
2018-08-11T04:59:16.617Z,77.81
2018-08-11T05:01:47.803Z,79.79
2018-08-11T05:04:18.082Z,79.58
2018-08-11T05:06:50.404Z,81.03
2018-08-11T05:09:22.225Z,82.06
2018-08-11T05:11:52.471Z,82.50
2018-08-11T05:14:22.656Z,82.65
2018-08-11T05:16:52.778Z,83.55
2018-08-11T05:19:24.760Z,82.12
2018-08-11T05:21:55.379Z,81.53
2018-08-11T05:24:28.605Z,83.82
2018-08-11T05:27:05.180Z,81.66
2018-08-11T05:29:39.949Z,82.42
2018-08-11T05:32:10.348Z,82.14
2018-08-11T05:34:43.396Z,82.12
2018-08-11T05:37:17.832Z,82.42
2018-08-11T05:39:51.868Z,82.11
2018-08-11T05:42:25.028Z,81.84
2018-08-11T05:45:00.035Z,81.15
2018-08-11T05:47:34.043Z,82.47
2018-08-11T05:50:07.737Z,80.57
2018-08-11T05:52:40.771Z,82.58
2018-08-11T05:55:10.541Z,81.12
2018-08-11T05:57:41.672Z,80.14
2018-08-11T06:00:14.526Z,79.75
2018-08-11T06:02:47.632Z,79.66
2018-08-11T06:05:20.036Z,80.79
2018-08-11T06:07:49.792Z,79.70
2018-08-11T06:10:20.063Z,79.87
2018-08-11T06:12:49.932Z,80.08
2018-08-11T06:15:25.519Z,80.76
2018-08-11T06:17:59.932Z,79.91
2018-08-11T06:20:33.332Z,80.53
2018-08-11T06:23:05.091Z,80.96
2018-08-11T06:25:36.298Z,80.25
2018-08-11T06:28:09.316Z,79.44
2018-08-11T06:30:39.582Z,79.72
2018-08-11T06:33:13.544Z,79.27
2018-08-11T06:35:44.846Z,79.83
2018-08-11T06:38:16.555Z,79.33
2018-08-11T06:40:48.314Z,80.29
2018-08-11T06:43:19.546Z,80.70
2018-08-11T06:45:50.532Z,80.01
2018-08-11T06:49:13.808Z,79.79
2018-08-11T06:51:44.075Z,79.15
2018-08-11T06:54:14.918Z,79.01
2018-08-11T06:56:45.363Z,79.36
2018-08-11T06:59:17.054Z,80.64
2018-08-11T07:01:47.721Z,79.09
2018-08-11T07:04:18.095Z,78.31
2018-08-11T07:06:49.865Z,79.05
2018-08-11T07:09:21.393Z,79.01
2018-08-11T07:11:53.599Z,78.21
2018-08-11T07:14:24.875Z,78.29
2018-08-11T07:16:55.874Z,77.90
2018-08-11T07:19:26.444Z,76.21
2018-08-11T07:22:00.877Z,74.31
2018-08-11T07:24:31.275Z,76.12
2018-08-11T07:27:05.462Z,74.61
2018-08-11T07:29:36.487Z,72.62
2018-08-11T07:32:09.070Z,72.23
2018-08-11T07:34:40.460Z,74.26
2018-08-11T07:37:14.582Z,73.02
2018-08-11T07:39:46.847Z,72.26
2018-08-11T07:42:18.652Z,73.21
2018-08-11T07:44:50.075Z,73.07
2018-08-11T07:47:21.228Z,73.08
2018-08-11T07:49:52.142Z,74.23
2018-08-11T07:52:23.160Z,73.68
2018-08-11T07:54:54.746Z,72.21
2018-08-11T07:58:22.552Z,70.47
2018-08-11T08:01:01.809Z,70.50
2018-08-11T08:06:59.565Z,68.07
2018-08-11T08:10:18.441Z,67.87
2018-08-11T08:19:20.329Z,67.69
2018-08-11T08:21:52.257Z,68.80
2018-08-11T08:31:44.477Z,64.44
2018-08-11T08:34:36.177Z,64.26
2018-08-11T09:34:00.077Z,70.75
2018-08-11T09:36:33.248Z,73.38
2018-08-11T09:39:08.308Z,72.71
2018-08-11T10:15:34.347Z,65.87
2018-08-11T10:18:26.193Z,65.73
2018-08-11T10:24:14.130Z,66.93
2018-08-11T11:01:50.032Z,67.15
2018-08-11T11:18:41.903Z,68.09
2018-08-11T11:25:15.756Z,66.01
2018-08-11T11:28:11.807Z,69.38
2018-08-11T11:30:43.287Z,73.02
2018-08-11T11:33:30.810Z,74.62
2018-08-11T11:36:12.426Z,77.48
2018-08-11T11:52:19.371Z,81.61
2018-08-11T11:54:54.238Z,82.66
2018-08-11T11:57:42.876Z,80.21
2018-08-11T12:00:21.662Z,82.88
2018-08-11T12:03:02.774Z,82.51
2018-08-11T12:05:43.218Z,83.50
2018-08-11T12:08:23.644Z,79.94
2018-08-11T12:10:59.113Z,82.98
2018-08-11T12:13:43.630Z,80.93
2018-08-11T12:19:17.504Z,79.56
2018-08-11T12:22:43.999Z,78.52
2018-08-11T12:49:04.663Z,71.85
2018-08-11T12:51:39.941Z,71.85
2018-08-11T12:54:16.491Z,69.57
2018-08-11T12:56:52.760Z,70.05
2018-08-11T12:59:25.852Z,67.50
2018-08-11T13:02:01.683Z,67.71
2018-08-11T13:04:45.895Z,67.35
2018-08-11T13:07:20.867Z,66.87
2018-08-11T13:09:54.805Z,66.70
2018-08-11T13:12:25.923Z,67.14
2018-08-11T13:17:57.751Z,69.04
2018-08-11T13:20:30.810Z,73.44
2018-08-11T13:23:46.067Z,75.28
2018-08-11T13:27:02.787Z,77.48
2018-08-11T13:29:49.037Z,78.62
2018-08-11T13:33:20.962Z,76.09
2018-08-11T13:36:10.216Z,76.89
2018-08-11T13:38:46.880Z,77.79
2018-08-11T13:41:31.212Z,78.89
2018-08-11T13:44:13.535Z,79.01
2018-08-11T13:46:48.033Z,77.14
2018-08-11T13:49:24.531Z,77.22
2018-08-11T13:51:58.300Z,77.73
2018-08-11T13:54:41.439Z,76.42
2018-08-11T13:57:20.058Z,76.39
2018-08-11T13:59:54.002Z,74.67
2018-08-11T14:02:25.389Z,74.62
2018-08-11T14:05:01.364Z,74.22
2018-08-11T14:07:32.108Z,73.26
2018-08-11T14:10:02.428Z,72.51
2018-08-11T14:12:33.747Z,72.77
2018-08-11T14:15:10.024Z,72.08
2018-08-11T14:17:44.395Z,70.40
2018-08-11T14:20:15.587Z,70.51
2018-08-11T14:22:46.215Z,71.53
2018-08-11T14:25:16.921Z,69.75
2018-08-11T14:27:51.860Z,69.14
2018-08-11T14:30:22.964Z,68.50
2018-08-11T14:32:54.244Z,69.04
2018-08-11T14:35:25.638Z,67.39
2018-08-11T14:38:03.560Z,69.01
2018-08-11T14:40:36.891Z,69.59
2018-08-11T14:43:07.994Z,70.54
2018-08-11T14:45:43.111Z,72.78
2018-08-11T14:48:17.833Z,72.87
2018-08-11T14:50:58.783Z,69.96
2018-08-11T14:53:32.728Z,70.60
2018-08-11T14:56:08.083Z,70.91
2018-08-11T14:58:39.718Z,72.30
2018-08-11T15:01:12.660Z,73.57
2018-08-11T15:03:45.399Z,71.17
2018-08-11T15:06:21.014Z,70.70
2018-08-11T15:08:53.359Z,68.37
2018-08-11T15:11:27.360Z,60.66
2018-08-11T15:14:07.006Z,60.55
2018-08-11T15:19:19.739Z,60.52
2018-08-11T15:21:49.666Z,61.28
2018-08-11T15:24:19.994Z,59.77
2018-08-11T15:27:26.398Z,61.19
2018-08-11T15:29:58.607Z,62.99
2018-08-11T15:32:29.697Z,62.50
2018-08-11T15:35:02.739Z,62.70
2018-08-11T15:37:33.268Z,62.35
2018-08-11T15:40:08.867Z,64.27
2018-08-11T15:42:42.141Z,61.18
2018-08-11T15:45:16.013Z,61.77
2018-08-11T15:47:50.881Z,62.06
2018-08-11T15:50:21.787Z,62.04
2018-08-11T15:52:53.379Z,62.34
2018-08-11T15:55:24.996Z,62.69
2018-08-11T15:57:56.968Z,62.78
2018-08-11T16:00:28.726Z,62.11
2018-08-11T16:03:07.671Z,62.97
2018-08-11T16:05:40.220Z,62.48
2018-08-11T16:08:16.786Z,63.40
2018-08-11T16:10:55.649Z,63.55
2018-08-11T16:13:26.767Z,59.97
2018-08-11T16:15:59.710Z,60.29
2018-08-11T16:18:45.828Z,59.79
2018-08-11T16:21:22.022Z,59.84
2018-08-11T16:24:02.419Z,60.63
2018-08-11T16:26:37.766Z,61.74
2018-08-11T16:29:12.962Z,63.19
2018-08-11T16:31:44.720Z,62.61
2018-08-11T16:34:18.225Z,63.12
2018-08-11T16:36:49.460Z,63.28
2018-08-11T16:39:20.429Z,63.66
2018-08-11T16:41:53.502Z,62.77
2018-08-11T16:44:24.646Z,59.99
2018-08-11T17:00:18.363Z,55.84
2018-08-11T17:02:49.706Z,55.88
2018-08-11T17:05:19.956Z,55.10
2018-08-11T17:07:50.553Z,54.94
2018-08-11T17:10:21.186Z,54.97
2018-08-11T17:12:52.994Z,55.62
2018-08-11T17:15:24.543Z,56.55
2018-08-11T17:17:56.540Z,58.48
2018-08-11T17:20:27.169Z,59.40
2018-08-11T17:22:58.242Z,59.86
2018-08-11T17:28:21.313Z,62.67
2018-08-11T17:30:51.834Z,62.95
2018-08-11T17:33:23.273Z,61.30
2018-08-11T17:35:54.711Z,61.32
2018-08-11T17:38:26.399Z,61.21
2018-08-11T17:40:59.729Z,60.91
2018-08-11T17:51:36.795Z,62.35
2018-08-11T17:54:10.003Z,62.94
2018-08-11T17:56:42.579Z,63.33
2018-08-11T17:59:18.985Z,63.86
2018-08-11T18:01:57.051Z,63.79
2018-08-11T18:04:31.080Z,64.26
2018-08-11T18:07:02.952Z,64.77
2018-08-11T18:09:37.168Z,65.22
2018-08-11T18:12:13.591Z,65.25
2018-08-11T18:14:50.103Z,65.12
2018-08-11T18:20:14.172Z,64.90
2018-08-11T18:22:49.021Z,64.88
2018-08-11T18:25:22.009Z,65.07
2018-08-11T18:27:53.648Z,66.15
2018-08-11T18:30:36.938Z,65.82
2018-08-11T18:33:13.956Z,66.32
2018-08-11T18:35:46.528Z,66.81
2018-08-11T18:38:17.956Z,67.79
2018-08-11T18:40:49.292Z,67.22
2018-08-11T18:43:21.961Z,67.49
2018-08-11T18:48:38.088Z,68.44
2018-08-11T18:51:13.965Z,68.73
2018-08-11T18:53:45.929Z,68.01
2018-08-11T18:56:18.705Z,68.13
2018-08-11T18:58:50.052Z,69.18
2018-08-11T19:01:36.167Z,68.62
2018-08-11T19:04:18.489Z,68.26
2018-08-11T19:06:49.220Z,67.89
2018-08-11T19:09:19.475Z,68.01
2018-08-11T19:11:50.916Z,67.88
2018-08-11T19:14:22.439Z,67.25
2018-08-11T19:16:55.321Z,67.56
2018-08-11T19:19:27.079Z,67.66
2018-08-11T19:22:00.571Z,69.00
2018-08-11T19:24:39.181Z,68.46
2018-08-11T19:27:09.999Z,68.70
2018-08-11T19:29:41.983Z,69.88
2018-08-11T19:32:16.816Z,71.23
2018-08-11T19:34:47.494Z,71.05
2018-08-11T19:37:18.172Z,71.00
2018-08-11T19:39:52.251Z,71.67
2018-08-11T19:42:23.320Z,72.53
2018-08-11T19:44:54.201Z,71.67
2018-08-11T19:47:25.707Z,72.07
2018-08-11T19:49:58.074Z,71.72
2018-08-11T19:52:28.290Z,73.85
2018-08-11T19:55:00.453Z,73.88
2018-08-11T19:57:32.372Z,73.24
2018-08-11T20:00:03.036Z,74.09
2018-08-11T20:02:34.937Z,74.40
2018-08-11T20:05:12.044Z,73.73
2018-08-11T20:07:50.004Z,74.65
2018-08-11T20:10:25.649Z,74.03
2018-08-11T20:12:56.331Z,74.12
2018-08-11T20:15:27.323Z,74.54
2018-08-11T20:17:59.459Z,73.66
2018-08-11T20:20:30.382Z,73.15
2018-08-11T20:23:01.172Z,72.73
2018-08-11T20:25:33.601Z,72.56
2018-08-11T20:28:04.409Z,71.71
2018-08-11T20:30:50.731Z,72.58
2018-08-11T20:33:24.802Z,72.42
2018-08-11T20:35:55.891Z,71.83
2018-08-11T20:38:28.406Z,71.79
2018-08-11T20:40:58.785Z,71.20
2018-08-11T20:43:28.988Z,71.19
2018-08-11T20:45:59.833Z,70.93
2018-08-11T20:48:32.444Z,70.17
2018-08-11T20:51:06.630Z,70.29
2018-08-11T20:53:37.814Z,70.82
2018-08-11T20:56:11.458Z,71.36
2018-08-11T20:58:43.641Z,70.58
2018-08-11T21:01:15.579Z,70.89
2018-08-11T21:03:46.229Z,71.07
2018-08-11T21:06:17.310Z,70.34
2018-08-11T21:08:51.857Z,69.51
2018-08-11T21:11:22.773Z,69.58
2018-08-11T21:13:53.692Z,70.42
2018-08-11T21:16:24.071Z,70.89
2018-08-11T21:18:55.221Z,70.81
2018-08-11T21:21:27.956Z,70.50
2018-08-11T21:24:04.494Z,70.70
2018-08-11T21:26:34.782Z,71.66
2018-08-11T21:29:05.887Z,71.56
2018-08-11T21:31:36.518Z,71.20
2018-08-11T21:34:11.966Z,71.43
2018-08-11T21:36:45.346Z,71.74
2018-08-11T21:39:19.090Z,71.23
2018-08-11T21:41:49.391Z,70.97
2018-08-11T21:44:19.650Z,72.01
2018-08-11T21:46:50.106Z,71.76
2018-08-11T21:49:22.207Z,72.28
2018-08-11T21:51:52.641Z,72.17
2018-08-11T21:54:23.830Z,72.57
2018-08-11T21:56:57.119Z,72.18
2018-08-11T21:59:31.922Z,73.43
2018-08-11T22:02:02.402Z,73.33
2018-08-11T22:04:36.691Z,74.04
2018-08-11T22:07:08.265Z,74.38
2018-08-11T22:09:39.169Z,73.29
2018-08-11T22:12:11.596Z,72.96
2018-08-11T22:14:43.572Z,73.63
2018-08-11T22:17:13.827Z,73.49
2018-08-11T22:19:45.722Z,74.25
2018-08-11T22:22:15.925Z,74.62
2018-08-11T22:24:46.336Z,73.36
2018-08-11T22:27:17.897Z,73.15
2018-08-11T22:29:50.280Z,74.42
2018-08-11T22:32:22.960Z,73.45
2018-08-11T22:34:54.305Z,73.48
2018-08-11T22:37:28.389Z,73.62
2018-08-11T22:40:00.091Z,74.25
2018-08-11T22:42:33.055Z,74.59
2018-08-11T22:50:02.552Z,74.21
2018-08-11T22:52:32.919Z,73.54
2018-08-11T22:55:03.207Z,74.68
2018-08-11T22:57:35.510Z,74.50
2018-08-11T23:00:14.606Z,75.02
2018-08-11T23:02:47.262Z,74.26
2018-08-11T23:05:22.020Z,75.45
2018-08-11T23:07:52.570Z,75.45
2018-08-11T23:10:24.846Z,74.77
2018-08-11T23:12:55.566Z,76.05
2018-08-11T23:15:25.772Z,76.94
2018-08-11T23:17:59.345Z,76.54
2018-08-11T23:20:29.983Z,76.73
2018-08-11T23:23:00.815Z,77.64
2018-08-11T23:25:33.049Z,76.97
2018-08-11T23:28:04.741Z,77.53
2018-08-11T23:30:35.745Z,77.73
2018-08-11T23:33:10.953Z,78.56
2018-08-11T23:35:41.163Z,77.72
2018-08-11T23:38:11.442Z,78.40
2018-08-11T23:40:41.878Z,78.14
2018-08-11T23:43:14.219Z,78.40
2018-08-11T23:45:46.856Z,79.35
2018-08-11T23:48:19.654Z,78.80
2018-08-11T23:50:52.409Z,78.24
2018-08-11T23:53:25.952Z,78.53
2018-08-11T23:55:56.853Z,78.82
2018-08-11T23:58:30.670Z,78.70
